sensor_id;sensor_type;location;lat;lon;timestamp;pressure;altitude;pressure_sealevel;temperature;humidity
15308;BME280;7755;52.208;6.964;2024-01-27T00:00:18;102915.56;;;3.38;100.00
15308;BME280;7755;52.208;6.964;2024-01-27T00:04:26;102916.56;;;3.37;100.00
15308;BME280;7755;52.208;6.964;2024-01-27T00:08:31;102927.31;;;3.37;100.00
15308;BME280;7755;52.208;6.964;2024-01-27T00:12:36;102932.13;;;3.33;100.00
15308;BME280;7755;52.208;6.964;2024-01-27T00:16:41;102939.06;;;3.36;100.00
15308;BME280;7755;52.208;6.964;2024-01-27T00:20:48;102946.13;;;3.37;100.00
15308;BME280;7755;52.208;6.964;2024-01-27T00:24:53;102938.06;;;3.37;100.00
15308;BME280;7755;52.208;6.964;2024-01-27T00:28:58;102951.66;;;3.35;100.00
15308;BME280;7755;52.208;6.964;2024-01-27T00:33:06;102947.41;;;3.33;100.00
15308;BME280;7755;52.208;6.964;2024-01-27T00:37:14;102948.97;;;3.35;100.00
15308;BME280;7755;52.208;6.964;2024-01-27T00:41:20;102949.97;;;3.34;100.00
15308;BME280;7755;52.208;6.964;2024-01-27T00:45:25;102943.88;;;3.32;100.00
15308;BME280;7755;52.208;6.964;2024-01-27T00:49:32;102949.13;;;3.34;100.00
15308;BME280;7755;52.208;6.964;2024-01-27T00:53:40;102948.13;;;3.35;100.00
15308;BME280;7755;52.208;6.964;2024-01-27T00:57:45;102964.97;;;3.37;100.00
15308;BME280;7755;52.208;6.964;2024-01-27T01:01:50;102968.66;;;3.36;100.00
15308;BME280;7755;52.208;6.964;2024-01-27T01:05:55;102961.28;;;3.38;100.00
15308;BME280;7755;52.208;6.964;2024-01-27T01:10:04;102963.41;;;3.34;100.00
15308;BME280;7755;52.208;6.964;2024-01-27T01:14:09;102971.72;;;3.31;100.00
15308;BME280;7755;52.208;6.964;2024-01-27T01:18:14;102981.09;;;3.37;100.00
15308;BME280;7755;52.208;6.964;2024-01-27T01:22:19;102979.13;;;3.39;100.00
15308;BME280;7755;52.208;6.964;2024-01-27T01:26:26;102977.56;;;3.36;100.00
15308;BME280;7755;52.208;6.964;2024-01-27T01:30:31;102975.72;;;3.37;100.00
15308;BME280;7755;52.208;6.964;2024-01-27T01:34:36;102980.25;;;3.36;100.00
15308;BME280;7755;52.208;6.964;2024-01-27T01:38:41;102974.88;;;3.36;100.00
15308;BME280;7755;52.208;6.964;2024-01-27T01:42:52;102980.66;;;3.32;100.00
15308;BME280;7755;52.208;6.964;2024-01-27T01:46:58;102995.81;;;3.33;100.00
15308;BME280;7755;52.208;6.964;2024-01-27T01:51:05;103003.88;;;3.33;100.00
15308;BME280;7755;52.208;6.964;2024-01-27T01:55:10;103001.59;;;3.28;100.00
15308;BME280;7755;52.208;6.964;2024-01-27T01:59:18;103004.53;;;3.25;100.00
15308;BME280;7755;52.208;6.964;2024-01-27T02:03:23;103011.31;;;3.19;100.00
15308;BME280;7755;52.208;6.964;2024-01-27T02:07:28;102996.06;;;3.20;100.00
15308;BME280;7755;52.208;6.964;2024-01-27T02:11:33;102993.47;;;3.18;100.00
15308;BME280;7755;52.208;6.964;2024-01-27T02:15:40;102998.00;;;3.18;100.00
15308;BME280;7755;52.208;6.964;2024-01-27T02:19:45;102997.03;;;3.19;100.00
15308;BME280;7755;52.208;6.964;2024-01-27T02:23:50;102998.13;;;3.16;100.00
15308;BME280;7755;52.208;6.964;2024-01-27T02:27:58;102999.44;;;3.22;100.00
15308;BME280;7755;52.208;6.964;2024-01-27T02:32:05;103002.66;;;3.16;100.00
15308;BME280;7755;52.208;6.964;2024-01-27T02:36:10;103010.34;;;3.20;100.00
15308;BME280;7755;52.208;6.964;2024-01-27T02:40:15;103007.06;;;3.17;100.00
15308;BME280;7755;52.208;6.964;2024-01-27T02:44:23;103000.56;;;3.19;100.00
15308;BME280;7755;52.208;6.964;2024-01-27T02:48:28;102999.84;;;3.17;100.00
15308;BME280;7755;52.208;6.964;2024-01-27T02:52:33;103001.69;;;3.17;100.00
15308;BME280;7755;52.208;6.964;2024-01-27T02:56:38;103000.56;;;3.19;100.00
15308;BME280;7755;52.208;6.964;2024-01-27T03:00:45;103010.59;;;3.17;100.00
15308;BME280;7755;52.208;6.964;2024-01-27T03:04:50;103004.22;;;3.18;100.00
15308;BME280;7755;52.208;6.964;2024-01-27T03:08:55;103000.25;;;3.13;100.00
15308;BME280;7755;52.208;6.964;2024-01-27T03:13:00;102999.41;;;3.12;100.00
15308;BME280;7755;52.208;6.964;2024-01-27T03:17:07;102996.00;;;3.10;100.00
15308;BME280;7755;52.208;6.964;2024-01-27T03:21:12;102999.81;;;3.08;100.00
15308;BME280;7755;52.208;6.964;2024-01-27T03:25:17;102997.13;;;3.08;100.00
15308;BME280;7755;52.208;6.964;2024-01-27T03:29:22;103009.84;;;3.06;100.00
15308;BME280;7755;52.208;6.964;2024-01-27T03:33:30;102996.53;;;3.04;100.00
15308;BME280;7755;52.208;6.964;2024-01-27T03:37:35;102999.09;;;3.06;100.00
15308;BME280;7755;52.208;6.964;2024-01-27T03:41:39;102997.50;;;3.03;100.00
15308;BME280;7755;52.208;6.964;2024-01-27T03:45:44;103004.72;;;3.03;100.00
15308;BME280;7755;52.208;6.964;2024-01-27T03:49:52;103004.88;;;3.01;100.00
15308;BME280;7755;52.208;6.964;2024-01-27T03:53:57;103015.03;;;2.97;100.00
15308;BME280;7755;52.208;6.964;2024-01-27T03:58:02;103008.69;;;2.98;100.00
15308;BME280;7755;52.208;6.964;2024-01-27T04:02:07;103009.66;;;2.97;100.00
15308;BME280;7755;52.208;6.964;2024-01-27T04:06:15;103001.03;;;2.94;100.00
15308;BME280;7755;52.208;6.964;2024-01-27T04:10:20;103006.06;;;2.87;100.00
15308;BME280;7755;52.208;6.964;2024-01-27T04:14:25;103009.91;;;2.85;100.00
15308;BME280;7755;52.208;6.964;2024-01-27T04:18:30;103009.44;;;2.80;100.00
15308;BME280;7755;52.208;6.964;2024-01-27T04:22:38;103009.97;;;2.73;100.00
15308;BME280;7755;52.208;6.964;2024-01-27T04:26:43;103015.19;;;2.75;100.00
15308;BME280;7755;52.208;6.964;2024-01-27T04:30:48;103018.16;;;2.72;100.00
15308;BME280;7755;52.208;6.964;2024-01-27T04:34:53;103010.47;;;2.67;100.00
15308;BME280;7755;52.208;6.964;2024-01-27T04:39:00;103037.19;;;2.69;100.00
15308;BME280;7755;52.208;6.964;2024-01-27T04:43:06;103036.72;;;2.64;100.00
15308;BME280;7755;52.208;6.964;2024-01-27T04:47:11;103034.31;;;2.61;100.00
15308;BME280;7755;52.208;6.964;2024-01-27T04:51:16;103039.97;;;2.58;100.00
15308;BME280;7755;52.208;6.964;2024-01-27T04:55:23;103036.31;;;2.59;100.00
15308;BME280;7755;52.208;6.964;2024-01-27T04:59:28;103029.47;;;2.55;100.00
15308;BME280;7755;52.208;6.964;2024-01-27T05:03:33;103039.09;;;2.57;100.00
15308;BME280;7755;52.208;6.964;2024-01-27T05:07:38;103029.47;;;2.55;100.00
15308;BME280;7755;52.208;6.964;2024-01-27T05:11:46;103026.53;;;2.58;100.00
15308;BME280;7755;52.208;6.964;2024-01-27T05:15:53;103019.44;;;2.57;100.00
15308;BME280;7755;52.208;6.964;2024-01-27T05:19:58;103008.47;;;2.60;100.00
15308;BME280;7755;52.208;6.964;2024-01-27T05:24:06;103011.28;;;2.58;100.00
15308;BME280;7755;52.208;6.964;2024-01-27T05:28:13;103011.28;;;2.58;100.00
15308;BME280;7755;52.208;6.964;2024-01-27T05:32:19;103015.91;;;2.56;100.00
15308;BME280;7755;52.208;6.964;2024-01-27T05:36:24;103002.47;;;2.56;100.00
15308;BME280;7755;52.208;6.964;2024-01-27T05:40:29;102999.09;;;2.54;100.00
15308;BME280;7755;52.208;6.964;2024-01-27T05:44:36;103004.75;;;2.51;100.00
15308;BME280;7755;52.208;6.964;2024-01-27T05:48:42;103009.50;;;2.47;100.00
15308;BME280;7755;52.208;6.964;2024-01-27T05:52:47;103025.63;;;2.47;100.00
15308;BME280;7755;52.208;6.964;2024-01-27T05:56:52;103024.75;;;2.47;100.00
15308;BME280;7755;52.208;6.964;2024-01-27T06:01:00;103018.06;;;2.41;100.00
15308;BME280;7755;52.208;6.964;2024-01-27T06:05:05;103019.91;;;2.41;100.00
15308;BME280;7755;52.208;6.964;2024-01-27T06:09:10;103020.63;;;2.43;100.00
15308;BME280;7755;52.208;6.964;2024-01-27T06:13:16;103027.09;;;2.40;100.00
15308;BME280;7755;52.208;6.964;2024-01-27T06:17:23;103029.66;;;2.42;100.00
15308;BME280;7755;52.208;6.964;2024-01-27T06:21:28;103039.88;;;2.48;100.00
15308;BME280;7755;52.208;6.964;2024-01-27T06:25:33;103048.94;;;2.47;100.00
15308;BME280;7755;52.208;6.964;2024-01-27T06:29:38;103042.84;;;2.45;100.00
15308;BME280;7755;52.208;6.964;2024-01-27T06:33:46;103040.88;;;2.47;100.00
15308;BME280;7755;52.208;6.964;2024-01-27T06:37:51;103049.06;;;2.45;100.00
15308;BME280;7755;52.208;6.964;2024-01-27T06:41:56;103056.13;;;2.46;100.00
15308;BME280;7755;52.208;6.964;2024-01-27T06:46:01;103053.44;;;2.46;100.00
15308;BME280;7755;52.208;6.964;2024-01-27T06:50:10;103066.88;;;2.46;100.00
15308;BME280;7755;52.208;6.964;2024-01-27T06:54:15;103070.53;;;2.45;100.00
15308;BME280;7755;52.208;6.964;2024-01-27T06:58:20;103063.34;;;2.46;100.00
15308;BME280;7755;52.208;6.964;2024-01-27T07:02:26;103066.25;;;2.43;100.00
15308;BME280;7755;52.208;6.964;2024-01-27T07:06:33;103073.22;;;2.45;100.00
15308;BME280;7755;52.208;6.964;2024-01-27T07:10:38;103085.66;;;2.46;100.00
15308;BME280;7755;52.208;6.964;2024-01-27T07:14:43;103084.69;;;2.47;100.00
15308;BME280;7755;52.208;6.964;2024-01-27T07:18:48;103078.31;;;2.49;100.00
15308;BME280;7755;52.208;6.964;2024-01-27T07:22:56;103086.25;;;2.50;100.00
15308;BME280;7755;52.208;6.964;2024-01-27T07:27:01;103087.09;;;2.51;100.00
15308;BME280;7755;52.208;6.964;2024-01-27T07:31:07;103083.56;;;2.50;100.00
15308;BME280;7755;52.208;6.964;2024-01-27T07:35:13;103092.34;;;2.52;100.00
15308;BME280;7755;52.208;6.964;2024-01-27T07:39:20;103087.22;;;2.49;100.00
15308;BME280;7755;52.208;6.964;2024-01-27T07:43:25;103081.84;;;2.49;100.00
15308;BME280;7755;52.208;6.964;2024-01-27T07:47:30;103084.81;;;2.46;100.00
15308;BME280;7755;52.208;6.964;2024-01-27T07:51:35;103081.50;;;2.42;100.00
15308;BME280;7755;52.208;6.964;2024-01-27T07:55:43;103090.81;;;2.38;100.00
15308;BME280;7755;52.208;6.964;2024-01-27T07:59:48;103086.44;;;2.37;100.00
15308;BME280;7755;52.208;6.964;2024-01-27T08:03:53;103095.72;;;2.33;100.00
15308;BME280;7755;52.208;6.964;2024-01-27T08:07:58;103099.38;;;2.32;100.00
15308;BME280;7755;52.208;6.964;2024-01-27T08:12:06;103108.16;;;2.34;100.00
15308;BME280;7755;52.208;6.964;2024-01-27T08:16:12;103117.78;;;2.37;100.00
15308;BME280;7755;52.208;6.964;2024-01-27T08:20:17;103106.78;;;2.40;100.00
15308;BME280;7755;52.208;6.964;2024-01-27T08:24:22;103104.69;;;2.43;100.00
15308;BME280;7755;52.208;6.964;2024-01-27T08:28:30;103109.56;;;2.50;100.00
15308;BME280;7755;52.208;6.964;2024-01-27T08:32:35;103118.47;;;2.50;100.00
15308;BME280;7755;52.208;6.964;2024-01-27T08:36:40;103118.94;;;2.55;100.00
15308;BME280;7755;52.208;6.964;2024-01-27T08:40:45;103135.66;;;2.59;100.00
15308;BME280;7755;52.208;6.964;2024-01-27T08:44:53;103122.81;;;2.62;100.00
15308;BME280;7755;52.208;6.964;2024-01-27T08:48:58;103121.59;;;2.66;100.00
15308;BME280;7755;52.208;6.964;2024-01-27T08:53:03;103135.47;;;2.71;100.00
15308;BME280;7755;52.208;6.964;2024-01-27T08:57:08;103130.44;;;2.78;100.00
15308;BME280;7755;52.208;6.964;2024-01-27T09:01:16;103131.03;;;2.82;100.00
15308;BME280;7755;52.208;6.964;2024-01-27T09:05:21;103135.88;;;2.88;100.00
15308;BME280;7755;52.208;6.964;2024-01-27T09:09:26;103143.56;;;2.92;100.00
15308;BME280;7755;52.208;6.964;2024-01-27T09:13:31;103148.41;;;2.98;100.00
15308;BME280;7755;52.208;6.964;2024-01-27T09:17:39;103153.13;;;3.06;100.00
15308;BME280;7755;52.208;6.964;2024-01-27T09:21:45;103154.44;;;3.12;100.00
15308;BME280;7755;52.208;6.964;2024-01-27T09:25:50;103163.41;;;3.22;100.00
15308;BME280;7755;52.208;6.964;2024-01-27T09:29:55;103157.25;;;3.31;100.00
15308;BME280;7755;52.208;6.964;2024-01-27T09:34:03;103175.00;;;3.43;100.00
15308;BME280;7755;52.208;6.964;2024-01-27T09:38:08;103171.94;;;3.48;100.00
15308;BME280;7755;52.208;6.964;2024-01-27T09:42:20;103174.78;;;3.56;100.00
15308;BME280;7755;52.208;6.964;2024-01-27T09:46:25;103169.59;;;3.64;100.00
15308;BME280;7755;52.208;6.964;2024-01-27T09:50:34;103169.66;;;3.74;100.00
15308;BME280;7755;52.208;6.964;2024-01-27T09:54:40;103164.31;;;3.83;100.00
15308;BME280;7755;52.208;6.964;2024-01-27T09:58:45;103161.06;;;3.90;100.00
15308;BME280;7755;52.208;6.964;2024-01-27T10:02:52;103169.59;;;3.95;100.00
15308;BME280;7755;52.208;6.964;2024-01-27T10:07:00;103165.94;;;4.05;100.00
15308;BME280;7755;52.208;6.964;2024-01-27T10:11:07;103169.22;;;4.09;100.00
15308;BME280;7755;52.208;6.964;2024-01-27T10:15:18;103171.22;;;4.17;100.00
15308;BME280;7755;52.208;6.964;2024-01-27T10:19:24;103165.72;;;4.28;100.00
15308;BME280;7755;52.208;6.964;2024-01-27T10:23:32;103165.72;;;4.37;100.00
15308;BME280;7755;52.208;6.964;2024-01-27T10:27:36;103168.03;;;4.42;100.00
15308;BME280;7755;52.208;6.964;2024-01-27T10:31:42;103173.41;;;4.52;100.00
15308;BME280;7755;52.208;6.964;2024-01-27T10:35:57;103172.16;;;4.56;100.00
15308;BME280;7755;52.208;6.964;2024-01-27T10:40:07;103174.69;;;4.67;100.00
15308;BME280;7755;52.208;6.964;2024-01-27T10:44:14;103173.72;;;4.78;100.00
15308;BME280;7755;52.208;6.964;2024-01-27T10:48:19;103177.84;;;4.82;100.00
15308;BME280;7755;52.208;6.964;2024-01-27T10:52:28;103183.50;;;4.88;100.00
15308;BME280;7755;52.208;6.964;2024-01-27T10:56:37;103176.25;;;4.99;100.00
15308;BME280;7755;52.208;6.964;2024-01-27T11:00:45;103174.84;;;5.04;100.00
15308;BME280;7755;52.208;6.964;2024-01-27T11:04:53;103178.81;;;5.10;100.00
15308;BME280;7755;52.208;6.964;2024-01-27T11:08:59;103178.63;;;5.21;100.00
15308;BME280;7755;52.208;6.964;2024-01-27T11:13:09;103168.69;;;5.31;100.00
15308;BME280;7755;52.208;6.964;2024-01-27T11:17:14;103177.22;;;5.36;100.00
15308;BME280;7755;52.208;6.964;2024-01-27T11:21:19;103179.19;;;5.44;100.00
15308;BME280;7755;52.208;6.964;2024-01-27T11:25:25;103183.16;;;5.50;100.00
15308;BME280;7755;52.208;6.964;2024-01-27T11:29:33;103187.97;;;5.56;100.00
15308;BME280;7755;52.208;6.964;2024-01-27T11:33:41;103185.13;;;5.57;100.00
15308;BME280;7755;52.208;6.964;2024-01-27T11:37:48;103192.16;;;5.68;100.00
15308;BME280;7755;52.208;6.964;2024-01-27T11:41:53;103186.34;;;5.72;100.00
15308;BME280;7755;52.208;6.964;2024-01-27T11:46:11;103179.19;;;5.81;100.00
15308;BME280;7755;52.208;6.964;2024-01-27T11:50:17;103175.63;;;5.90;100.00
15308;BME280;7755;52.208;6.964;2024-01-27T11:54:23;103180.59;;;5.95;100.00
15308;BME280;7755;52.208;6.964;2024-01-27T11:58:28;103164.34;;;6.05;100.00
15308;BME280;7755;52.208;6.964;2024-01-27T12:02:36;103162.91;;;6.10;100.00
15308;BME280;7755;52.208;6.964;2024-01-27T12:06:41;103173.25;;;6.15;100.00
15308;BME280;7755;52.208;6.964;2024-01-27T12:10:46;103172.19;;;6.25;100.00
15308;BME280;7755;52.208;6.964;2024-01-27T12:14:51;103170.59;;;6.33;100.00
15308;BME280;7755;52.208;6.964;2024-01-27T12:18:59;103164.00;;;6.35;100.00
15308;BME280;7755;52.208;6.964;2024-01-27T12:23:05;103175.31;;;6.48;100.00
15308;BME280;7755;52.208;6.964;2024-01-27T12:27:11;103180.25;;;6.53;100.00
15308;BME280;7755;52.208;6.964;2024-01-27T12:31:16;103172.69;;;6.56;100.00
15308;BME280;7755;52.208;6.964;2024-01-27T12:35:24;103171.22;;;6.62;100.00
15308;BME280;7755;52.208;6.964;2024-01-27T12:39:31;103159.34;;;6.73;100.00
15308;BME280;7755;52.208;6.964;2024-01-27T12:43:36;103168.69;;;6.78;100.00
15308;BME280;7755;52.208;6.964;2024-01-27T12:47:41;103173.09;;;6.79;100.00
15308;BME280;7755;52.208;6.964;2024-01-27T12:51:48;103171.06;;;6.81;100.00
15308;BME280;7755;52.208;6.964;2024-01-27T12:55:54;103175.88;;;6.88;100.00
15308;BME280;7755;52.208;6.964;2024-01-27T12:59:59;103159.88;;;6.94;100.00
15308;BME280;7755;52.208;6.964;2024-01-27T13:04:06;103160.41;;;6.98;100.00
15308;BME280;7755;52.208;6.964;2024-01-27T13:08:13;103146.03;;;6.97;100.00
15308;BME280;7755;52.208;6.964;2024-01-27T13:12:18;103141.22;;;7.09;100.00
15308;BME280;7755;52.208;6.964;2024-01-27T13:16:23;103138.91;;;7.14;100.00
15308;BME280;7755;52.208;6.964;2024-01-27T13:20:28;103139.28;;;7.19;100.00
15308;BME280;7755;52.208;6.964;2024-01-27T13:24:36;103135.41;;;7.22;100.00
15308;BME280;7755;52.208;6.964;2024-01-27T13:28:41;103137.09;;;7.23;100.00
15308;BME280;7755;52.208;6.964;2024-01-27T13:32:46;103134.56;;;7.21;100.00
15308;BME280;7755;52.208;6.964;2024-01-27T13:36:51;103143.72;;;7.28;100.00
15308;BME280;7755;52.208;6.964;2024-01-27T13:40:59;103147.50;;;7.35;100.00
15308;BME280;7755;52.208;6.964;2024-01-27T13:45:04;103147.03;;;7.40;100.00
15308;BME280;7755;52.208;6.964;2024-01-27T13:49:10;103153.13;;;7.42;100.00
15308;BME280;7755;52.208;6.964;2024-01-27T13:53:16;103148.72;;;7.41;100.00
15308;BME280;7755;52.208;6.964;2024-01-27T13:57:25;103143.47;;;7.39;100.00
15308;BME280;7755;52.208;6.964;2024-01-27T14:01:30;103142.94;;;7.36;100.00
15308;BME280;7755;52.208;6.964;2024-01-27T14:05:35;103140.59;;;7.41;100.00
15308;BME280;7755;52.208;6.964;2024-01-27T14:09:40;103138.56;;;7.43;100.00
15308;BME280;7755;52.208;6.964;2024-01-27T14:13:48;103129.44;;;7.44;100.00
15308;BME280;7755;52.208;6.964;2024-01-27T14:17:53;103133.72;;;7.47;100.00
15308;BME280;7755;52.208;6.964;2024-01-27T14:21:58;103137.56;;;7.44;100.00
15308;BME280;7755;52.208;6.964;2024-01-27T14:26:03;103137.72;;;7.43;100.00
15308;BME280;7755;52.208;6.964;2024-01-27T14:30:13;103139.59;;;7.42;100.00
15308;BME280;7755;52.208;6.964;2024-01-27T14:34:18;103141.63;;;7.40;100.00
15308;BME280;7755;52.208;6.964;2024-01-27T14:38:24;103143.59;;;7.38;100.00
15308;BME280;7755;52.208;6.964;2024-01-27T14:42:29;103137.84;;;7.33;100.00
15308;BME280;7755;52.208;6.964;2024-01-27T14:46:38;103147.81;;;7.32;100.00
15308;BME280;7755;52.208;6.964;2024-01-27T14:50:43;103149.53;;;7.33;100.00
15308;BME280;7755;52.208;6.964;2024-01-27T14:54:49;103139.84;;;7.31;100.00
15308;BME280;7755;52.208;6.964;2024-01-27T14:58:54;103143.72;;;7.28;100.00
15308;BME280;7755;52.208;6.964;2024-01-27T15:03:02;103136.47;;;7.29;100.00
15308;BME280;7755;52.208;6.964;2024-01-27T15:07:07;103149.81;;;7.30;100.00
15308;BME280;7755;52.208;6.964;2024-01-27T15:11:17;103139.34;;;7.27;100.00
15308;BME280;7755;52.208;6.964;2024-01-27T15:15:22;103143.50;;;7.22;100.00
15308;BME280;7755;52.208;6.964;2024-01-27T15:19:30;103140.28;;;7.18;100.00
15308;BME280;7755;52.208;6.964;2024-01-27T15:23:42;103135.00;;;7.17;100.00
15308;BME280;7755;52.208;6.964;2024-01-27T15:27:48;103144.13;;;7.16;100.00
15308;BME280;7755;52.208;6.964;2024-01-27T15:31:53;103132.25;;;7.08;100.00
15308;BME280;7755;52.208;6.964;2024-01-27T15:36:00;103119.69;;;6.99;100.00
15308;BME280;7755;52.208;6.964;2024-01-27T15:40:07;103116.59;;;6.94;100.00
15308;BME280;7755;52.208;6.964;2024-01-27T15:44:12;103120.25;;;6.85;100.00
15308;BME280;7755;52.208;6.964;2024-01-27T15:48:17;103121.72;;;6.79;100.00
15308;BME280;7755;52.208;6.964;2024-01-27T15:52:25;103134.16;;;6.72;100.00
15308;BME280;7755;52.208;6.964;2024-01-27T15:56:30;103129.53;;;6.65;100.00
15308;BME280;7755;52.208;6.964;2024-01-27T16:00:35;103135.84;;;6.55;100.00
15308;BME280;7755;52.208;6.964;2024-01-27T16:04:40;103139.50;;;6.46;100.00
15308;BME280;7755;52.208;6.964;2024-01-27T16:08:47;103134.47;;;6.34;100.00
15308;BME280;7755;52.208;6.964;2024-01-27T16:12:52;103140.47;;;6.27;100.00
15308;BME280;7755;52.208;6.964;2024-01-27T16:16:57;103141.38;;;6.18;100.00
15308;BME280;7755;52.208;6.964;2024-01-27T16:21:03;103153.06;;;6.09;100.00
15308;BME280;7755;52.208;6.964;2024-01-27T16:25:10;103146.75;;;6.00;100.00
15308;BME280;7755;52.208;6.964;2024-01-27T16:29:16;103147.50;;;5.93;100.00
15308;BME280;7755;52.208;6.964;2024-01-27T16:33:21;103150.06;;;5.85;100.00
15308;BME280;7755;52.208;6.964;2024-01-27T16:37:26;103143.00;;;5.74;100.00
15308;BME280;7755;52.208;6.964;2024-01-27T16:41:33;103138.78;;;5.62;100.00
15308;BME280;7755;52.208;6.964;2024-01-27T16:45:38;103136.56;;;5.47;100.00
15308;BME280;7755;52.208;6.964;2024-01-27T16:49:43;103144.69;;;5.38;100.00
15308;BME280;7755;52.208;6.964;2024-01-27T16:53:48;103144.84;;;5.27;100.00
15308;BME280;7755;52.208;6.964;2024-01-27T16:57:56;103157.53;;;5.16;100.00
15308;BME280;7755;52.208;6.964;2024-01-27T17:02:01;103152.28;;;5.05;100.00
15308;BME280;7755;52.208;6.964;2024-01-27T17:06:06;103151.56;;;4.93;100.00
15308;BME280;7755;52.208;6.964;2024-01-27T17:10:12;103152.44;;;4.84;100.00
15308;BME280;7755;52.208;6.964;2024-01-27T17:14:19;103148.91;;;4.74;100.00
15308;BME280;7755;52.208;6.964;2024-01-27T17:18:24;103144.19;;;4.66;100.00
15308;BME280;7755;52.208;6.964;2024-01-27T17:22:29;103142.38;;;4.57;100.00
15308;BME280;7755;52.208;6.964;2024-01-27T17:26:34;103137.94;;;4.47;100.00
15308;BME280;7755;52.208;6.964;2024-01-27T17:30:42;103140.50;;;4.38;100.00
15308;BME280;7755;52.208;6.964;2024-01-27T17:34:47;103132.28;;;4.30;100.00
15308;BME280;7755;52.208;6.964;2024-01-27T17:38:52;103133.13;;;4.21;100.00
15308;BME280;7755;52.208;6.964;2024-01-27T17:42:57;103138.22;;;4.15;100.00
15308;BME280;7755;52.208;6.964;2024-01-27T17:47:07;103141.59;;;4.07;100.00
15308;BME280;7755;52.208;6.964;2024-01-27T17:51:12;103135.16;;;3.98;100.00
15308;BME280;7755;52.208;6.964;2024-01-27T17:55:18;103149.31;;;3.91;100.00
15308;BME280;7755;52.208;6.964;2024-01-27T17:59:23;103135.69;;;3.82;100.00
15308;BME280;7755;52.208;6.964;2024-01-27T18:03:30;103152.53;;;3.75;100.00
15308;BME280;7755;52.208;6.964;2024-01-27T18:07:35;103136.22;;;3.67;100.00
15308;BME280;7755;52.208;6.964;2024-01-27T18:11:40;103142.84;;;3.63;100.00
15308;BME280;7755;52.208;6.964;2024-01-27T18:15:45;103145.22;;;3.56;100.00
15308;BME280;7755;52.208;6.964;2024-01-27T18:19:53;103143.34;;;3.47;100.00
15308;BME280;7755;52.208;6.964;2024-01-27T18:23:58;103138.75;;;3.38;100.00
15308;BME280;7755;52.208;6.964;2024-01-27T18:28:03;103130.78;;;3.26;100.00
15308;BME280;7755;52.208;6.964;2024-01-27T18:32:09;103131.31;;;3.20;100.00
15308;BME280;7755;52.208;6.964;2024-01-27T18:36:18;103130.25;;;3.12;100.00
15308;BME280;7755;52.208;6.964;2024-01-27T18:40:23;103134.44;;;3.05;100.00
15308;BME280;7755;52.208;6.964;2024-01-27T18:44:28;103137.78;;;2.97;100.00
15308;BME280;7755;52.208;6.964;2024-01-27T18:48:33;103140.28;;;2.89;100.00
15308;BME280;7755;52.208;6.964;2024-01-27T18:52:41;103153.50;;;2.81;100.00
15308;BME280;7755;52.208;6.964;2024-01-27T18:56:46;103158.25;;;2.77;100.00
15308;BME280;7755;52.208;6.964;2024-01-27T19:00:51;103153.31;;;2.72;100.00
15308;BME280;7755;52.208;6.964;2024-01-27T19:05:02;103161.03;;;2.66;100.00
15308;BME280;7755;52.208;6.964;2024-01-27T19:09:12;103150.50;;;2.63;100.00
15308;BME280;7755;52.208;6.964;2024-01-27T19:13:17;103155.16;;;2.61;100.00
15308;BME280;7755;52.208;6.964;2024-01-27T19:17:22;103160.19;;;2.54;100.00
15308;BME280;7755;52.208;6.964;2024-01-27T19:21:27;103155.19;;;2.50;100.00
15308;BME280;7755;52.208;6.964;2024-01-27T19:25:35;103164.38;;;2.47;100.00
15308;BME280;7755;52.208;6.964;2024-01-27T19:29:40;103162.06;;;2.42;100.00
15308;BME280;7755;52.208;6.964;2024-01-27T19:33:45;103156.09;;;2.39;100.00
15308;BME280;7755;52.208;6.964;2024-01-27T19:37:50;103166.22;;;2.35;100.00
15308;BME280;7755;52.208;6.964;2024-01-27T19:41:58;103155.88;;;2.31;100.00
15308;BME280;7755;52.208;6.964;2024-01-27T19:46:03;103152.59;;;2.27;100.00
15308;BME280;7755;52.208;6.964;2024-01-27T19:50:08;103152.09;;;2.22;100.00
15308;BME280;7755;52.208;6.964;2024-01-27T19:54:14;103154.19;;;2.18;100.00
15308;BME280;7755;52.208;6.964;2024-01-27T19:58:22;103149.19;;;2.14;100.00
15308;BME280;7755;52.208;6.964;2024-01-27T20:02:27;103153.09;;;2.10;100.00
15308;BME280;7755;52.208;6.964;2024-01-27T20:06:32;103153.72;;;2.02;100.00
15308;BME280;7755;52.208;6.964;2024-01-27T20:10:37;103159.34;;;1.88;100.00
15308;BME280;7755;52.208;6.964;2024-01-27T20:14:45;103167.88;;;1.82;100.00
15308;BME280;7755;52.208;6.964;2024-01-27T20:18:50;103170.09;;;1.77;100.00
15308;BME280;7755;52.208;6.964;2024-01-27T20:22:55;103162.53;;;1.71;100.00
15308;BME280;7755;52.208;6.964;2024-01-27T20:27:00;103163.03;;;1.64;100.00
15308;BME280;7755;52.208;6.964;2024-01-27T20:31:07;103160.69;;;1.60;100.00
15308;BME280;7755;52.208;6.964;2024-01-27T20:35:12;103158.28;;;1.57;100.00
15308;BME280;7755;52.208;6.964;2024-01-27T20:39:17;103161.19;;;1.54;100.00
15308;BME280;7755;52.208;6.964;2024-01-27T20:43:23;103151.69;;;1.50;100.00
15308;BME280;7755;52.208;6.964;2024-01-27T20:47:31;103153.38;;;1.51;100.00
15308;BME280;7755;52.208;6.964;2024-01-27T20:51:36;103148.25;;;1.48;100.00
15308;BME280;7755;52.208;6.964;2024-01-27T20:55:44;103144.00;;;1.45;100.00
15308;BME280;7755;52.208;6.964;2024-01-27T20:59:52;103128.03;;;1.44;100.00
15308;BME280;7755;52.208;6.964;2024-01-27T21:04:00;103130.81;;;1.42;100.00
15308;BME280;7755;52.208;6.964;2024-01-27T21:08:05;103127.53;;;1.39;100.00
15308;BME280;7755;52.208;6.964;2024-01-27T21:12:10;103128.75;;;1.34;100.00
15308;BME280;7755;52.208;6.964;2024-01-27T21:16:15;103128.88;;;1.33;100.00
15308;BME280;7755;52.208;6.964;2024-01-27T21:20:23;103118.03;;;1.34;100.00
15308;BME280;7755;52.208;6.964;2024-01-27T21:24:28;103115.47;;;1.33;100.00
15308;BME280;7755;52.208;6.964;2024-01-27T21:28:33;103112.06;;;1.31;100.00
15308;BME280;7755;52.208;6.964;2024-01-27T21:32:38;103108.91;;;1.26;100.00
15308;BME280;7755;52.208;6.964;2024-01-27T21:36:45;103106.34;;;1.24;100.00
15308;BME280;7755;52.208;6.964;2024-01-27T21:40:51;103108.28;;;1.22;100.00